Time,TemperatureF,DewpointF,PressureIn,WindDirection,WindDirectionDegrees,WindSpeedMPH,WindSpeedGustMPH,Humidity,HourlyPrecipIn,Conditions,Clouds,dailyrainin,SoftwareType,DateUTC
2013-07-24 00:04:00,78.9,60.3,29.70,SW,219,1.0,2.0,53,0.00,,,0.00,Wunderground PWS Mod,2013-07-24 04:04:00,
2013-07-24 00:14:00,79.4,60.2,29.70,SW,219,1.0,2.0,52,0.00,,,0.00,Wunderground PWS Mod,2013-07-24 04:14:00,
2013-07-24 00:18:00,79.0,59.9,29.70,SW,219,0.0,2.0,52,0.00,,,0.00,Wunderground PWS Mod,2013-07-24 04:18:00,
2013-07-24 00:24:00,78.1,59.6,29.70,SW,219,0.0,2.0,53,0.00,,,0.00,Wunderground PWS Mod,2013-07-24 04:24:00,
2013-07-24 00:26:00,77.8,59.3,29.70,SW,219,0.0,2.0,53,0.00,,,0.00,Wunderground PWS Mod,2013-07-24 04:26:00,
2013-07-24 00:34:00,78.4,59.9,29.70,SW,219,1.0,2.0,53,0.00,,,0.00,Wunderground PWS Mod,2013-07-24 04:34:00,
2013-07-24 00:44:00,78.2,59.1,29.70,SW,219,0.0,2.0,52,0.00,,,0.00,Wunderground PWS Mod,2013-07-24 04:44:00,
2013-07-24 00:46:00,78.7,60.1,29.70,SW,225,0.0,2.0,53,0.00,,,0.00,Wunderground PWS Mod,2013-07-24 04:46:00,
2013-07-24 00:54:00,78.2,59.7,29.70,SW,219,1.0,2.0,53,0.00,,,0.00,Wunderground PWS Mod,2013-07-24 04:54:00,
2013-07-24 01:04:00,78.8,60.2,29.70,SW,219,2.0,2.0,53,0.00,,,0.00,Wunderground PWS Mod,2013-07-24 05:04:00,
2013-07-24 01:10:00,78.3,59.8,29.69,SW,225,1.0,2.0,53,0.00,,,0.00,Wunderground PWS Mod,2013-07-24 05:10:00,
2013-07-24 01:12:00,78.3,59.8,29.69,SW,225,1.0,2.0,53,0.00,,,0.00,Wunderground PWS Mod,2013-07-24 05:12:00,
2013-07-24 01:14:00,78.4,59.3,29.69,SW,219,1.0,2.0,52,0.00,,,0.00,Wunderground PWS Mod,2013-07-24 05:14:00,
2013-07-24 01:24:00,78.9,59.8,29.69,SW,219,1.0,2.0,52,0.00,,,0.00,Wunderground PWS Mod,2013-07-24 05:24:00,
2013-07-24 01:34:00,78.5,59.4,29.69,SW,219,2.0,2.0,52,0.00,,,0.00,Wunderground PWS Mod,2013-07-24 05:34:00,
2013-07-24 01:44:00,77.3,58.8,29.68,SW,219,1.0,2.0,53,0.00,,,0.00,Wunderground PWS Mod,2013-07-24 05:44:00,
2013-07-24 01:48:00,77.5,57.9,29.67,SW,225,1.0,2.0,51,0.00,,,0.00,Wunderground PWS Mod,2013-07-24 05:48:00,
2013-07-24 01:54:00,76.9,57.9,29.68,SW,219,1.0,2.0,52,0.00,,,0.00,Wunderground PWS Mod,2013-07-24 05:54:00,
2013-07-24 02:04:00,77.8,58.2,29.68,SW,219,0.0,2.0,51,0.00,,,0.00,Wunderground PWS Mod,2013-07-24 06:04:00,
2013-07-24 02:10:00,77.5,57.9,29.67,SW,225,1.0,2.0,51,0.00,,,0.00,Wunderground PWS Mod,2013-07-24 06:10:00,
2013-07-24 02:12:00,77.5,57.9,29.67,SW,225,1.0,2.0,51,0.00,,,0.00,Wunderground PWS Mod,2013-07-24 06:12:00,
2013-07-24 02:14:00,78.1,58.5,29.68,SW,219,1.0,2.0,51,0.00,,,0.00,Wunderground PWS Mod,2013-07-24 06:14:00,
2013-07-24 02:24:00,77.6,58.0,29.68,SW,219,0.0,2.0,51,0.00,,,0.00,Wunderground PWS Mod,2013-07-24 06:24:00,
2013-07-24 02:34:00,77.3,57.8,29.68,SW,219,2.0,2.0,51,0.00,,,0.00,Wunderground PWS Mod,2013-07-24 06:34:00,
2013-07-24 02:44:00,76.1,57.7,29.67,SW,219,1.0,2.0,53,0.00,,,0.00,Wunderground PWS Mod,2013-07-24 06:44:00,
2013-07-24 02:46:00,77.8,58.8,29.67,SW,225,0.0,2.0,52,0.00,,,0.00,Wunderground PWS Mod,2013-07-24 06:46:00,
2013-07-24 02:54:00,78.7,58.5,29.68,SW,219,1.0,2.0,50,0.00,,,0.00,Wunderground PWS Mod,2013-07-24 06:54:00,
2013-07-24 03:04:00,79.2,59.0,29.68,SW,219,1.0,2.0,50,0.00,,,0.00,Wunderground PWS Mod,2013-07-24 07:04:00,
2013-07-24 03:14:00,79.2,59.0,29.68,SW,219,1.0,4.0,50,0.00,,,0.00,Wunderground PWS Mod,2013-07-24 07:14:00,
2013-07-24 03:16:00,77.5,57.4,29.68,SW,225,1.0,4.0,50,0.00,,,0.00,Wunderground PWS Mod,2013-07-24 07:16:00,
2013-07-24 03:24:00,78.2,58.0,29.68,SW,219,1.0,4.0,50,0.00,,,0.00,Wunderground PWS Mod,2013-07-24 07:24:00,
2013-07-24 03:34:00,77.2,57.7,29.68,SW,219,1.0,4.0,51,0.00,,,0.00,Wunderground PWS Mod,2013-07-24 07:34:00,
2013-07-24 03:44:00,76.1,57.2,29.68,SW,219,0.0,4.0,52,0.00,,,0.00,Wunderground PWS Mod,2013-07-24 07:44:00,
2013-07-24 03:48:00,76.5,57.6,29.67,SW,225,1.0,3.0,52,0.00,,,0.00,Wunderground PWS Mod,2013-07-24 07:48:00,
2013-07-24 03:54:00,76.5,57.0,29.67,SW,219,0.0,4.0,51,0.00,,,0.00,Wunderground PWS Mod,2013-07-24 07:54:00,
2013-07-24 04:04:00,75.8,56.9,29.68,SW,219,0.0,2.0,52,0.00,,,0.00,Wunderground PWS Mod,2013-07-24 08:04:00,
2013-07-24 04:14:00,78.7,57.9,29.68,SW,219,2.0,3.0,49,0.00,,,0.00,Wunderground PWS Mod,2013-07-24 08:14:00,
2013-07-24 04:18:00,78.5,57.2,29.67,SW,225,1.0,3.0,48,0.00,,,0.00,Wunderground PWS Mod,2013-07-24 08:18:00,
2013-07-24 04:24:00,79.0,58.2,29.67,SW,219,2.0,3.0,49,0.00,,,0.00,Wunderground PWS Mod,2013-07-24 08:24:00,
2013-07-24 04:34:00,79.4,58.6,29.67,SW,219,2.0,3.0,49,0.00,,,0.00,Wunderground PWS Mod,2013-07-24 08:34:00,
2013-07-24 04:44:00,77.1,57.6,29.67,SW,219,1.0,3.0,51,0.00,,,0.00,Wunderground PWS Mod,2013-07-24 08:44:00,
2013-07-24 04:46:00,78.5,57.2,29.67,SW,225,1.0,3.0,48,0.00,,,0.00,Wunderground PWS Mod,2013-07-24 08:46:00,
2013-07-24 04:54:00,75.4,56.0,29.68,SW,219,0.0,3.0,51,0.00,,,0.00,Wunderground PWS Mod,2013-07-24 08:54:00,
2013-07-24 05:04:00,74.7,60.4,29.68,SW,219,1.0,3.0,61,0.00,,,0.00,Wunderground PWS Mod,2013-07-24 09:04:00,
2013-07-24 05:14:00,74.3,56.1,29.68,SW,219,2.0,3.0,53,0.00,,,0.00,Wunderground PWS Mod,2013-07-24 09:14:00,
2013-07-24 05:16:00,76.9,62.4,29.67,SW,225,1.0,3.0,61,0.00,,,0.00,Wunderground PWS Mod,2013-07-24 09:16:00,
2013-07-24 05:24:00,74.4,55.6,29.68,SW,219,1.0,3.0,52,0.00,,,0.00,Wunderground PWS Mod,2013-07-24 09:24:00,
2013-07-24 05:34:00,74.9,55.6,29.68,SW,219,0.0,3.0,51,0.00,,,0.00,Wunderground PWS Mod,2013-07-24 09:34:00,
2013-07-24 05:44:00,75.4,56.0,29.69,SW,219,2.0,3.0,51,0.00,,,0.00,Wunderground PWS Mod,2013-07-24 09:44:00,
2013-07-24 05:46:00,74.4,55.1,29.67,SW,225,1.0,3.0,51,0.00,,,0.00,Wunderground PWS Mod,2013-07-24 09:46:00,
2013-07-24 05:54:00,76.7,56.7,29.68,SW,219,1.0,3.0,50,0.00,,,0.00,Wunderground PWS Mod,2013-07-24 09:54:00,
2013-07-24 06:04:00,76.1,56.7,29.69,SW,219,1.0,3.0,51,0.00,,,0.00,Wunderground PWS Mod,2013-07-24 10:04:00,
2013-07-24 06:14:00,76.3,56.3,29.69,SW,219,1.0,3.0,50,0.00,,,0.00,Wunderground PWS Mod,2013-07-24 10:14:00,
2013-07-24 06:16:00,75.9,56.5,29.69,SW,225,1.0,2.0,51,0.00,,,0.00,Wunderground PWS Mod,2013-07-24 10:16:00,
2013-07-24 06:24:00,75.0,55.6,29.70,SW,219,0.0,3.0,51,0.00,,,0.00,Wunderground PWS Mod,2013-07-24 10:24:00,
2013-07-24 06:34:00,73.7,55.0,29.70,SW,219,0.0,3.0,52,0.00,,,0.00,Wunderground PWS Mod,2013-07-24 10:34:00,
2013-07-24 06:44:00,73.1,54.9,29.71,SW,219,2.0,3.0,53,0.00,,,0.00,Wunderground PWS Mod,2013-07-24 10:44:00,
2013-07-24 06:48:00,73.4,54.7,29.72,SW,225,2.0,7.0,52,0.00,,,0.00,Wunderground PWS Mod,2013-07-24 10:48:00,
2013-07-24 06:54:00,73.4,54.7,29.72,SW,219,2.0,3.0,52,0.00,,,0.00,Wunderground PWS Mod,2013-07-24 10:54:00,
2013-07-24 07:04:00,73.7,55.0,29.72,NNW,344,1.0,2.0,52,0.00,,,0.00,Wunderground PWS Mod,2013-07-24 11:04:00,
2013-07-24 07:14:00,74.1,54.8,29.72,NW,325,1.0,7.0,51,0.00,,,0.00,Wunderground PWS Mod,2013-07-24 11:14:00,
2013-07-24 07:16:00,73.4,54.7,29.72,SW,225,2.0,7.0,52,0.00,,,0.00,Wunderground PWS Mod,2013-07-24 11:16:00,
2013-07-24 07:24:00,74.6,55.3,29.72,NNW,342,1.0,7.0,51,0.00,,,0.00,Wunderground PWS Mod,2013-07-24 11:24:00,
2013-07-24 07:34:00,74.7,55.4,29.73,NNW,341,2.0,7.0,51,0.00,,,0.00,Wunderground PWS Mod,2013-07-24 11:34:00,
2013-07-24 07:44:00,75.0,55.6,29.73,NNW,330,1.0,7.0,51,0.00,,,0.00,Wunderground PWS Mod,2013-07-24 11:44:00,
2013-07-24 07:46:00,74.4,55.1,29.72,NNW,338,2.0,5.0,51,0.00,,,0.00,Wunderground PWS Mod,2013-07-24 11:46:00,
2013-07-24 07:54:00,75.6,55.6,29.74,NNW,343,2.0,7.0,50,0.00,,,0.00,Wunderground PWS Mod,2013-07-24 11:54:00,
2013-07-24 08:04:00,75.9,55.9,29.74,West,277,2.0,5.0,50,0.00,,,0.00,Wunderground PWS Mod,2013-07-24 12:04:00,
2013-07-24 08:14:00,76.4,55.8,29.74,NW,323,2.0,6.0,49,0.00,,,0.00,Wunderground PWS Mod,2013-07-24 12:14:00,
2013-07-24 08:16:00,75.2,55.3,29.74,NNW,338,2.0,6.0,50,0.00,,,0.00,Wunderground PWS Mod,2013-07-24 12:16:00,
2013-07-24 08:24:00,76.3,56.3,29.75,WNW,292,2.0,6.0,50,0.00,,,0.00,Wunderground PWS Mod,2013-07-24 12:24:00,
2013-07-24 08:34:00,75.9,55.9,29.75,NW,307,2.0,6.0,50,0.00,,,0.00,Wunderground PWS Mod,2013-07-24 12:34:00,
2013-07-24 08:44:00,75.9,56.5,29.75,NW,317,1.0,7.0,51,0.00,,,0.00,Wunderground PWS Mod,2013-07-24 12:44:00,
2013-07-24 08:48:00,76.2,56.2,29.75,NW,315,2.0,5.0,50,0.00,,,0.00,Wunderground PWS Mod,2013-07-24 12:48:00,
2013-07-24 08:54:00,76.4,56.4,29.75,WNW,302,2.0,7.0,50,0.00,,,0.00,Wunderground PWS Mod,2013-07-24 12:54:00,
2013-07-24 09:04:00,77.1,57.0,29.76,NNW,339,2.0,7.0,50,0.00,,,0.00,Wunderground PWS Mod,2013-07-24 13:04:00,
2013-07-24 09:14:00,78.3,57.6,29.76,North,5,3.0,7.0,49,0.00,,,0.00,Wunderground PWS Mod,2013-07-24 13:14:00,
2013-07-24 09:18:00,77.8,56.5,29.75,NNW,338,3.0,9.0,48,0.00,,,0.00,Wunderground PWS Mod,2013-07-24 13:18:00,
2013-07-24 09:24:00,77.9,56.6,29.76,North,351,3.0,7.0,48,0.00,,,0.00,Wunderground PWS Mod,2013-07-24 13:24:00,
2013-07-24 09:34:00,77.9,56.6,29.76,North,354,2.0,7.0,48,0.00,,,0.00,Wunderground PWS Mod,2013-07-24 13:34:00,
2013-07-24 09:44:00,78.2,56.9,29.76,NW,325,5.0,9.0,48,0.00,,,0.00,Wunderground PWS Mod,2013-07-24 13:44:00,
2013-07-24 09:50:00,78.1,56.2,29.77,NNW,338,4.0,14.0,47,0.00,,,0.00,Wunderground PWS Mod,2013-07-24 13:50:00,
2013-07-24 09:52:00,78.1,56.2,29.77,NNW,338,4.0,14.0,47,0.00,,,0.00,Wunderground PWS Mod,2013-07-24 13:52:00,
2013-07-24 09:54:00,78.4,56.5,29.76,NW,322,5.0,9.0,47,0.00,,,0.00,Wunderground PWS Mod,2013-07-24 13:54:00,
2013-07-24 10:04:00,77.8,56.0,29.78,NNW,340,5.0,9.0,47,0.00,,,0.00,Wunderground PWS Mod,2013-07-24 14:04:00,
2013-07-24 10:10:00,78.1,56.2,29.77,NNW,338,4.0,14.0,47,0.00,,,0.00,Wunderground PWS Mod,2013-07-24 14:10:00,
2013-07-24 10:12:00,78.1,56.2,29.77,NNW,338,4.0,14.0,47,0.00,,,0.00,Wunderground PWS Mod,2013-07-24 14:12:00,
2013-07-24 10:14:00,78.3,55.8,29.77,North,350,3.0,14.0,46,0.00,,,0.00,Wunderground PWS Mod,2013-07-24 14:14:00,
2013-07-24 10:24:00,78.1,55.6,29.78,North,6,2.0,14.0,46,0.00,,,0.00,Wunderground PWS Mod,2013-07-24 14:24:00,
2013-07-24 10:34:00,77.5,55.7,29.79,NW,324,2.0,14.0,47,0.00,,,0.00,Wunderground PWS Mod,2013-07-24 14:34:00,
2013-07-24 10:44:00,77.3,55.5,29.79,North,2,2.0,14.0,47,0.00,,,0.00,Wunderground PWS Mod,2013-07-24 14:44:00,
2013-07-24 10:50:00,77.4,56.2,29.80,NNW,338,4.0,10.0,48,0.00,,,0.00,Wunderground PWS Mod,2013-07-24 14:50:00,
2013-07-24 10:52:00,77.4,56.2,29.80,NNW,338,4.0,10.0,48,0.00,,,0.00,Wunderground PWS Mod,2013-07-24 14:52:00,
2013-07-24 10:54:00,77.4,55.6,29.80,NNW,340,4.0,14.0,47,0.00,,,0.00,Wunderground PWS Mod,2013-07-24 14:54:00,
2013-07-24 11:04:00,77.7,56.4,29.80,NNE,28,2.0,9.0,48,0.00,,,0.00,Wunderground PWS Mod,2013-07-24 15:04:00,
2013-07-24 11:10:00,77.4,56.2,29.80,NNW,338,4.0,10.0,48,0.00,,,0.00,Wunderground PWS Mod,2013-07-24 15:10:00,
2013-07-24 11:12:00,77.4,56.2,29.80,NNW,338,4.0,10.0,48,0.00,,,0.00,Wunderground PWS Mod,2013-07-24 15:12:00,
2013-07-24 11:14:00,77.7,55.9,29.81,North,352,4.0,10.0,47,0.00,,,0.00,Wunderground PWS Mod,2013-07-24 15:14:00,
2013-07-24 11:24:00,77.9,56.0,29.80,NW,322,4.0,10.0,47,0.00,,,0.00,Wunderground PWS Mod,2013-07-24 15:24:00,
2013-07-24 11:34:00,79.5,57.5,29.80,North,351,2.0,10.0,47,0.00,,,0.00,Wunderground PWS Mod,2013-07-24 15:34:00,
2013-07-24 11:44:00,80.3,57.0,29.80,NNW,330,3.0,10.0,45,0.00,,,0.00,Wunderground PWS Mod,2013-07-24 15:44:00,
2013-07-24 11:46:00,78.0,55.5,29.80,NNW,338,4.0,10.0,46,0.00,,,0.00,Wunderground PWS Mod,2013-07-24 15:46:00,
2013-07-24 11:54:00,80.4,57.1,29.80,NNW,340,3.0,10.0,45,0.00,,,0.00,Wunderground PWS Mod,2013-07-24 15:54:00,
2013-07-24 12:04:00,80.6,57.3,29.81,NNW,343,4.0,10.0,45,0.00,,,0.00,Wunderground PWS Mod,2013-07-24 16:04:00,
2013-07-24 12:14:00,80.9,57.6,29.81,NNE,17,1.0,10.0,45,0.00,,,0.00,Wunderground PWS Mod,2013-07-24 16:14:00,
2013-07-24 12:16:00,80.1,57.5,29.80,North,0,3.0,10.0,46,0.00,,,0.00,Wunderground PWS Mod,2013-07-24 16:16:00,
2013-07-24 12:24:00,82.4,58.3,29.81,NW,322,6.0,10.0,44,0.00,,,0.00,Wunderground PWS Mod,2013-07-24 16:24:00,
2013-07-24 12:34:00,80.7,57.4,29.80,NW,309,6.0,10.0,45,0.00,,,0.00,Wunderground PWS Mod,2013-07-24 16:34:00,
2013-07-24 12:44:00,79.8,57.2,29.80,NNW,348,2.0,11.0,46,0.00,,,0.00,Wunderground PWS Mod,2013-07-24 16:44:00,
2013-07-24 12:46:00,81.4,58.0,29.80,North,0,3.0,11.0,45,0.00,,,0.00,Wunderground PWS Mod,2013-07-24 16:46:00,
2013-07-24 12:54:00,79.5,57.5,29.80,NNE,17,2.0,11.0,47,0.00,,,0.00,Wunderground PWS Mod,2013-07-24 16:54:00,
2013-07-24 13:04:00,79.8,57.2,29.80,NNW,337,2.0,11.0,46,0.00,,,0.00,Wunderground PWS Mod,2013-07-24 17:04:00,
2013-07-24 13:14:00,79.3,56.7,29.81,North,359,3.0,11.0,46,0.00,,,0.00,Wunderground PWS Mod,2013-07-24 17:14:00,
2013-07-24 13:16:00,80.0,57.4,29.80,NW,315,3.0,8.0,46,0.00,,,0.00,Wunderground PWS Mod,2013-07-24 17:16:00,
2013-07-24 13:24:00,80.8,57.5,29.80,NE,38,1.0,11.0,45,0.00,,,0.00,Wunderground PWS Mod,2013-07-24 17:24:00,
2013-07-24 13:34:00,81.4,57.4,29.80,North,357,3.0,11.0,44,0.00,,,0.00,Wunderground PWS Mod,2013-07-24 17:34:00,
2013-07-24 13:44:00,82.5,58.4,29.80,North,11,2.0,11.0,44,0.00,,,0.00,Wunderground PWS Mod,2013-07-24 17:44:00,
2013-07-24 13:48:00,81.9,57.8,29.80,NNE,23,2.0,7.0,44,0.00,,,0.00,Wunderground PWS Mod,2013-07-24 17:48:00,
2013-07-24 13:54:00,81.5,58.1,29.80,NNE,13,2.0,11.0,45,0.00,,,0.00,Wunderground PWS Mod,2013-07-24 17:54:00,
2013-07-24 14:04:00,82.6,58.5,29.80,NNE,22,2.0,8.0,44,0.00,,,0.00,Wunderground PWS Mod,2013-07-24 18:04:00,
2013-07-24 14:14:00,83.2,59.0,29.80,North,0,2.0,8.0,44,0.00,,,0.00,Wunderground PWS Mod,2013-07-24 18:14:00,
2013-07-24 14:18:00,83.2,59.0,29.79,NNE,23,3.0,7.0,44,0.00,,,0.00,Wunderground PWS Mod,2013-07-24 18:18:00,
2013-07-24 14:24:00,83.6,58.7,29.80,NNE,24,4.0,8.0,43,0.00,,,0.00,Wunderground PWS Mod,2013-07-24 18:24:00,
2013-07-24 14:34:00,82.6,58.5,29.80,NNW,327,2.0,8.0,44,0.00,,,0.00,Wunderground PWS Mod,2013-07-24 18:34:00,
2013-07-24 14:44:00,82.3,58.2,29.80,NW,312,1.0,8.0,44,0.00,,,0.00,Wunderground PWS Mod,2013-07-24 18:44:00,
2013-07-24 14:46:00,83.2,59.0,29.79,NNE,23,3.0,7.0,44,0.00,,,0.00,Wunderground PWS Mod,2013-07-24 18:46:00,
2013-07-24 14:54:00,82.7,59.2,29.80,North,1,2.0,8.0,45,0.00,,,0.00,Wunderground PWS Mod,2013-07-24 18:54:00,
2013-07-24 15:04:00,82.8,58.7,29.80,North,352,5.0,7.0,44,0.00,,,0.00,Wunderground PWS Mod,2013-07-24 19:04:00,
2013-07-24 15:14:00,82.5,57.7,29.80,NNW,332,5.0,7.0,43,0.00,,,0.00,Wunderground PWS Mod,2013-07-24 19:14:00,
2013-07-24 15:16:00,82.4,58.3,29.79,North,0,2.0,6.0,44,0.00,,,0.00,Wunderground PWS Mod,2013-07-24 19:16:00,
2013-07-24 15:24:00,82.0,57.3,29.79,NNW,327,4.0,7.0,43,0.00,,,0.00,Wunderground PWS Mod,2013-07-24 19:24:00,
2013-07-24 15:34:00,83.1,57.6,29.79,NNE,27,2.0,7.0,42,0.00,,,0.00,Wunderground PWS Mod,2013-07-24 19:34:00,
2013-07-24 15:44:00,84.8,59.2,29.79,NNW,327,5.0,10.0,42,0.00,,,0.00,Wunderground PWS Mod,2013-07-24 19:44:00,
2013-07-24 15:46:00,82.4,57.7,29.79,NNW,338,4.0,10.0,43,0.00,,,0.00,Wunderground PWS Mod,2013-07-24 19:46:00,
2013-07-24 15:54:00,85.7,59.3,29.79,NNW,341,3.0,10.0,41,0.00,,,0.00,Wunderground PWS Mod,2013-07-24 19:54:00,
2013-07-24 16:04:00,84.7,59.1,29.79,NNW,339,5.0,10.0,42,0.00,,,0.00,Wunderground PWS Mod,2013-07-24 20:04:00,
2013-07-24 16:10:00,84.7,59.1,29.79,North,0,3.0,9.0,42,0.00,,,0.00,Wunderground PWS Mod,2013-07-24 20:10:00,
2013-07-24 16:12:00,84.7,59.1,29.79,North,0,3.0,9.0,42,0.00,,,0.00,Wunderground PWS Mod,2013-07-24 20:12:00,
2013-07-24 16:14:00,82.6,58.5,29.79,North,4,3.0,10.0,44,0.00,,,0.00,Wunderground PWS Mod,2013-07-24 20:14:00,
2013-07-24 16:24:00,82.0,57.9,29.80,NNW,346,4.0,10.0,44,0.00,,,0.00,Wunderground PWS Mod,2013-07-24 20:24:00,
2013-07-24 16:34:00,82.6,57.8,29.79,NNW,348,4.0,10.0,43,0.00,,,0.00,Wunderground PWS Mod,2013-07-24 20:34:00,
2013-07-24 16:44:00,83.2,59.0,29.79,NNE,29,2.0,10.0,44,0.00,,,0.00,Wunderground PWS Mod,2013-07-24 20:44:00,
2013-07-24 16:48:00,83.3,58.5,29.79,NNE,23,4.0,12.0,43,0.00,,,0.00,Wunderground PWS Mod,2013-07-24 20:48:00,
2013-07-24 16:54:00,83.5,59.3,29.79,NNE,23,1.0,10.0,44,0.00,,,0.00,Wunderground PWS Mod,2013-07-24 20:54:00,
2013-07-24 17:04:00,83.5,58.6,29.79,North,11,5.0,10.0,43,0.00,,,0.00,Wunderground PWS Mod,2013-07-24 21:04:00,
2013-07-24 17:10:00,83.3,58.5,29.79,NNE,23,4.0,12.0,43,0.00,,,0.00,Wunderground PWS Mod,2013-07-24 21:10:00,
2013-07-24 17:12:00,83.3,58.5,29.79,NNE,23,4.0,12.0,43,0.00,,,0.00,Wunderground PWS Mod,2013-07-24 21:12:00,
2013-07-24 17:14:00,83.9,59.0,29.80,North,7,3.0,12.0,43,0.00,,,0.00,Wunderground PWS Mod,2013-07-24 21:14:00,
2013-07-24 17:24:00,86.4,60.6,29.80,NNE,33,4.0,12.0,42,0.00,,,0.00,Wunderground PWS Mod,2013-07-24 21:24:00,
2013-07-24 17:34:00,84.8,59.8,29.79,NNE,27,5.0,12.0,43,0.00,,,0.00,Wunderground PWS Mod,2013-07-24 21:34:00,
2013-07-24 17:44:00,84.5,58.9,29.80,NNE,20,4.0,12.0,42,0.00,,,0.00,Wunderground PWS Mod,2013-07-24 21:44:00,
2013-07-24 17:46:00,84.8,59.8,29.79,NNE,23,4.0,11.0,43,0.00,,,0.00,Wunderground PWS Mod,2013-07-24 21:46:00,
2013-07-24 17:54:00,84.1,58.5,29.79,NNE,29,3.0,12.0,42,0.00,,,0.00,Wunderground PWS Mod,2013-07-24 21:54:00,
2013-07-24 18:04:00,84.7,59.1,29.80,NNE,32,2.0,11.0,42,0.00,,,0.00,Wunderground PWS Mod,2013-07-24 22:04:00,
2013-07-24 18:14:00,84.8,58.5,29.80,NNE,30,4.0,11.0,41,0.00,,,0.00,Wunderground PWS Mod,2013-07-24 22:14:00,
2013-07-24 18:16:00,84.6,59.0,29.79,NNE,23,3.0,8.0,42,0.00,,,0.00,Wunderground PWS Mod,2013-07-24 22:16:00,
2013-07-24 18:24:00,84.7,59.1,29.80,North,1,1.0,11.0,42,0.00,,,0.00,Wunderground PWS Mod,2013-07-24 22:24:00,
2013-07-24 18:34:00,83.0,57.5,29.80,North,6,1.0,11.0,42,0.00,,,0.00,Wunderground PWS Mod,2013-07-24 22:34:00,
2013-07-24 18:44:00,83.9,57.7,29.81,North,3,3.0,11.0,41,0.00,,,0.00,Wunderground PWS Mod,2013-07-24 22:44:00,
2013-07-24 18:48:00,83.8,58.3,29.81,NNE,23,3.0,12.0,42,0.00,,,0.00,Wunderground PWS Mod,2013-07-24 22:48:00,
2013-07-24 18:54:00,84.4,58.1,29.81,NNE,25,1.0,11.0,41,0.00,,,0.00,Wunderground PWS Mod,2013-07-24 22:54:00,
2013-07-24 19:04:00,83.4,57.2,29.81,NNE,27,6.0,10.0,41,0.00,,,0.00,Wunderground PWS Mod,2013-07-24 23:04:00,
2013-07-24 19:14:00,83.3,57.8,29.82,NNE,27,9.0,12.0,42,0.00,,,0.00,Wunderground PWS Mod,2013-07-24 23:14:00,
2013-07-24 19:20:00,82.7,57.3,29.82,NNE,23,4.0,11.0,42,0.00,,,0.00,Wunderground PWS Mod,2013-07-24 23:20:00,
2013-07-24 19:22:00,82.7,57.3,29.82,NNE,23,4.0,11.0,42,0.00,,,0.00,Wunderground PWS Mod,2013-07-24 23:22:00,
2013-07-24 19:24:00,82.1,56.7,29.82,NNE,30,6.0,12.0,42,0.00,,,0.00,Wunderground PWS Mod,2013-07-24 23:24:00,
2013-07-24 19:34:00,81.3,56.0,29.82,NNE,18,3.0,12.0,42,0.00,,,0.00,Wunderground PWS Mod,2013-07-24 23:34:00,
2013-07-24 19:44:00,80.7,55.5,29.82,North,5,3.0,12.0,42,0.00,,,0.00,Wunderground PWS Mod,2013-07-24 23:44:00,
2013-07-24 19:48:00,80.7,55.5,29.83,NNE,23,4.0,11.0,42,0.00,,,0.00,Wunderground PWS Mod,2013-07-24 23:48:00,
2013-07-24 19:54:00,80.2,55.0,29.83,North,0,2.0,12.0,42,0.00,,,0.00,Wunderground PWS Mod,2013-07-24 23:54:00,
2013-07-24 20:04:00,80.3,55.1,29.83,NNE,25,5.0,11.0,42,0.00,,,0.00,Wunderground PWS Mod,2013-07-25 00:04:00,
2013-07-24 20:14:00,80.2,54.4,29.84,NNE,27,5.0,11.0,41,0.00,,,0.00,Wunderground PWS Mod,2013-07-25 00:14:00,
2013-07-24 20:16:00,80.7,55.5,29.83,NNE,23,4.0,11.0,42,0.00,,,0.00,Wunderground PWS Mod,2013-07-25 00:16:00,
2013-07-24 20:24:00,79.6,53.1,29.84,NNE,27,3.0,11.0,40,0.00,,,0.00,Wunderground PWS Mod,2013-07-25 00:24:00,
2013-07-24 20:34:00,79.2,53.5,29.84,NNE,26,4.0,11.0,41,0.00,,,0.00,Wunderground PWS Mod,2013-07-25 00:34:00,
2013-07-24 20:44:00,79.1,53.4,29.85,NE,35,8.0,11.0,41,0.00,,,0.00,Wunderground PWS Mod,2013-07-25 00:44:00,
2013-07-24 20:46:00,79.9,54.1,29.84,NNE,23,4.0,9.0,41,0.00,,,0.00,Wunderground PWS Mod,2013-07-25 00:46:00,
2013-07-24 20:54:00,78.7,52.3,29.86,NNE,25,6.0,11.0,40,0.00,,,0.00,Wunderground PWS Mod,2013-07-25 00:54:00,
2013-07-24 21:04:00,79.1,52.7,29.87,NNE,28,5.0,9.0,40,0.00,,,0.00,Wunderground PWS Mod,2013-07-25 01:04:00,
2013-07-24 21:14:00,78.0,52.4,29.87,NE,43,4.0,10.0,41,0.00,,,0.00,Wunderground PWS Mod,2013-07-25 01:14:00,
2013-07-24 21:18:00,77.9,53.0,29.88,NE,45,3.0,12.0,42,0.00,,,0.00,Wunderground PWS Mod,2013-07-25 01:18:00,
2013-07-24 21:24:00,77.5,51.9,29.88,NE,37,6.0,10.0,41,0.00,,,0.00,Wunderground PWS Mod,2013-07-25 01:24:00,
2013-07-24 21:34:00,77.0,51.5,29.89,NE,53,5.0,10.0,41,0.00,,,0.00,Wunderground PWS Mod,2013-07-25 01:34:00,
2013-07-24 21:44:00,76.8,52.0,29.89,NE,34,2.0,12.0,42,0.00,,,0.00,Wunderground PWS Mod,2013-07-25 01:44:00,
2013-07-24 21:50:00,76.8,51.3,29.89,NE,45,3.0,9.0,41,0.00,,,0.00,Wunderground PWS Mod,2013-07-25 01:50:00,
2013-07-24 21:52:00,76.8,51.3,29.89,NE,45,3.0,9.0,41,0.00,,,0.00,Wunderground PWS Mod,2013-07-25 01:52:00,
2013-07-24 21:54:00,76.7,51.9,29.89,NE,39,8.0,12.0,42,0.00,,,0.00,Wunderground PWS Mod,2013-07-25 01:54:00,
2013-07-24 22:04:00,76.5,51.7,29.90,NE,35,3.0,12.0,42,0.00,,,0.00,Wunderground PWS Mod,2013-07-25 02:04:00,
2013-07-24 22:14:00,76.4,51.0,29.90,NNE,17,5.0,12.0,41,0.00,,,0.00,Wunderground PWS Mod,2013-07-25 02:14:00,
2013-07-24 22:18:00,76.3,50.9,29.90,NNE,23,4.0,11.0,41,0.00,,,0.00,Wunderground PWS Mod,2013-07-25 02:18:00,
2013-07-24 22:24:00,76.0,50.6,29.90,NNE,33,5.0,12.0,41,0.00,,,0.00,Wunderground PWS Mod,2013-07-25 02:24:00,
2013-07-24 22:34:00,75.9,50.5,29.90,NE,47,3.0,12.0,41,0.00,,,0.00,Wunderground PWS Mod,2013-07-25 02:34:00,
2013-07-24 22:44:00,75.6,50.2,29.90,NNE,31,4.0,12.0,41,0.00,,,0.00,Wunderground PWS Mod,2013-07-25 02:44:00,
2013-07-24 22:54:00,75.3,50.0,29.90,NNE,21,4.0,12.0,41,0.00,,,0.00,Wunderground PWS Mod,2013-07-25 02:54:00,
2013-07-24 23:04:00,75.4,50.1,29.90,NE,53,5.0,11.0,41,0.00,,,0.00,Wunderground PWS Mod,2013-07-25 03:04:00,
2013-07-24 23:14:00,74.7,49.4,29.91,NE,42,5.0,11.0,41,0.00,,,0.00,Wunderground PWS Mod,2013-07-25 03:14:00,
2013-07-24 23:18:00,74.7,49.4,29.90,NNE,23,5.0,13.0,41,0.00,,,0.00,Wunderground PWS Mod,2013-07-25 03:18:00,
2013-07-24 23:24:00,74.4,49.2,29.91,NNE,22,6.0,11.0,41,0.00,,,0.00,Wunderground PWS Mod,2013-07-25 03:24:00,
2013-07-24 23:34:00,74.2,49.6,29.90,NNE,23,5.0,11.0,42,0.00,,,0.00,Wunderground PWS Mod,2013-07-25 03:34:00,
2013-07-24 23:46:00,74.7,49.4,29.90,NNE,23,5.0,13.0,41,0.00,,,0.00,Wunderground PWS Mod,2013-07-25 03:46:00,
2013-07-24 23:48:00,73.7,49.2,29.91,NNE,28,10.0,13.0,42,0.00,,,0.00,Wunderground PWS Mod,2013-07-25 03:48:00,
2013-07-24 23:54:00,73.5,49.6,29.91,NNE,31,4.0,13.0,43,0.00,,,0.00,Wunderground PWS Mod,2013-07-25 03:54:00,